Miami Shores, Florida
Current Conditions -  °F | °C
As of 3:53 PM on Tuesday 21 Oct 2014 (Local Time) from KOPF Reporting Station
Broken Clouds Broken Clouds  
Wind Chill: 78°   Ceiling: 1900
Heat Index: 80°   Visibility: 10mi
Dew Point: 71°   Wind: 12mph
Humidity: 79%   Direction: 250°WSW
Pressure: 29.92"   Gusts: NA
Location:  25.87°N, 80.19°W
Report Text: KOPF 211953Z 25010KT 10SM BKN019 26/22 A2992 RMK AO2 SLP131 T02560217
Loading
Personal Weather Stations






























Interactive Weather Map
Tropical Storm Tracking
New forecast layout! Learn more

10-Day Weather Forecast

Advertisements
Track Severe Weather on mobile